• Join FlightAware (Why Join?)
  • Login
  • US Flag 
08:22AM EDT


 

Airport Tracker/Info


-or-


 

Live Flight TrackerFlight Track Log ✈ SWA998 ✈ 13-Jul-2014 ✈ KFLL - KCMH

Flight Track Log - Related Links

Times and Time Zones

All times are in EDT time to prevent confusion due to time zone crossing. See the SWA998 flight status page for this flight to view local times or setup timezone preferences in your user account.

Time Position Orientation Groundspeed Altitude Reporting Facility
EDT Latitude Longitude Course Direction KTS MPH feet Rate Location/Type
04:21PM 26.0783 -80.1267 312° West 164 189 900  Level Miami Center
04:22PM 26.1036 -80.0589 67° East 249 287 2,800 1,320 Climbing Miami Center
04:23PM 26.1217 -80.0433 38° Northeast 260 299 2,900 1,440 Climbing Miami Center
04:23PM 26.1725 -80.0594 344° North 296 341 4,300 1,980 Climbing Miami Center
04:24PM 26.1844 -80.0817 301° West 291 335 5,000 3,120 Climbing Miami Center
04:24PM 26.2008 -80.1453 286° West 277 319 7,500 2,700 Climbing Miami Center
04:25PM 26.2128 -80.1628 307° West 284 327 7,800 2,160 Climbing Miami Center
04:26PM 26.2969 -80.2283 325° Northwest 305 351 10,600 1,980 Climbing Miami Center
04:27PM 26.2860 -80.2491 312° West  Level FlightAware Approximate
04:27PM 26.3806 -80.2839 329° Northwest 355 409 12,000  Level Miami Center
04:28PM 26.4675 -80.3431 329° Northwest 365 420 14,100 2,040 Climbing Miami Center
04:29PM 26.5650 -80.4100 328° Northwest 379 436 16,300 1,800 Climbing Miami Center
04:30PM 26.6653 -80.4581 337° Northwest 397 457 17,900 1,740 Climbing Miami Center
04:31PM 26.7772 -80.5094 338° Northwest 401 461 19,900 1,620 Climbing Miami Center
04:32PM 26.8753 -80.5547 338° Northwest 408 470 21,300 1,260 Climbing Miami Center
04:33PM 26.9847 -80.6050 338° Northwest 421 484 22,600 1,320 Climbing Miami Center
04:34PM 27.0950 -80.6564 337° Northwest 426 490 24,100 1,500 Climbing Miami Center
04:35PM 27.2278 -80.7178 338° Northwest 428 493 25,700 1,200 Climbing Miami Center
04:36PM 27.3406 -80.7706 337° Northwest 436 502 26,700 900 Climbing Miami Center
04:37PM 27.4572 -80.8258 337° Northwest 445 512 27,600 1,020 Climbing Miami Center
04:38PM 27.5731 -80.8783 338° Northwest 446 513 28,900 1,320 Climbing Miami Center
04:39PM 27.6808 -80.9447 331° Northwest 442 509 30,400 1,080 Climbing Miami Center
04:40PM 27.7967 -81.0439 323° Northwest 436 502 31,200 840 Climbing Miami Center
04:41PM 27.8958 -81.1272 323° Northwest 440 506 32,200 900 Climbing Miami Center
04:42PM 27.9981 -81.2117 324° Northwest 438 504 33,100 720 Climbing Miami Center
04:43PM 28.1014 -81.2933 325° Northwest 437 503 33,800 660 Climbing Miami Center
04:44PM 28.2094 -81.3683 329° Northwest 437 503 34,500 480 Climbing Miami Center
04:46PM 28.3053 -81.4314 330° Northwest 436 502 34,900 180 Climbing Miami Center
04:47PM 28.4094 -81.5039 329° Northwest 436 502 34,900  Level Miami Center
04:48PM 28.5142 -81.5731 330° Northwest 436 502 35,000  Climbing Miami Center
04:49PM 28.6436 -81.6572 330° Northwest 442 509 35,000  Level Miami Center
04:50PM 28.7553 -81.7294 330° Northwest 459 528 35,000 -60 Level Miami Center
04:51PM 28.8569 -81.7950 331° Northwest 451 519 34,900  Descending Jacksonville Center
04:52PM 28.9719 -81.8364 343° North 445 512 35,000  Climbing Jacksonville Center
04:53PM 29.0953 -81.8400 359° North 427 491 34,900  Descending Jacksonville Center
04:54PM 29.2289 -81.8503 356° North 432 497 35,000  Climbing Jacksonville Center
04:55PM 29.3542 -81.8539 359° North 437 503 35,000 -60 Level Jacksonville Center
04:56PM 29.4753 -81.8597 358° North 437 503 34,900  Descending Jacksonville Center
04:57PM 29.5942 -81.8536 North 437 503 35,000  Climbing Jacksonville Center
04:58PM 29.7131 -81.8475 North 437 503 35,000  Level Jacksonville Center
04:59PM 29.8342 -81.8392 North 437 503 35,000 -60 Level Jacksonville Center
05:00PM 29.9553 -81.8281 North 437 503 34,900  Descending Jacksonville Center
05:01PM 30.0719 -81.8100 North 432 497 35,000  Climbing Jacksonville Center
05:02PM 30.1908 -81.7822 11° North 432 497 35,000 -60 Level Jacksonville Center
05:03PM 30.3011 -81.7497 14° North 420 483 34,900  Descending Jacksonville Center
05:04PM 30.4200 -81.7436 North 429 494 35,000  Climbing Jacksonville Center
05:05PM 30.5392 -81.7589 354° North 429 494 35,000  Level Jacksonville Center
05:06PM 30.6519 -81.7769 352° North 429 494 35,000  Level Jacksonville Center
05:07PM 30.7733 -81.7925 354° North 429 494 35,000  Level Jacksonville Center
05:08PM 30.8967 -81.8081 354° North 434 499 35,000  Level Jacksonville Center
05:09PM 31.0200 -81.8236 354° North 434 499 35,000  Level Jacksonville Center
05:10PM 31.1411 -81.8367 355° North 439 505 35,000  Level Jacksonville Center
05:11PM 31.2625 -81.8522 354° North 439 505 35,000  Level Jacksonville Center
05:12PM 31.3942 -81.8678 354° North 439 505 35,000  Level Jacksonville Center
05:13PM 31.5131 -81.8811 355° North 439 505 35,000  Level Jacksonville Center
05:14PM 31.6197 -81.8947 354° North 429 494 35,000  Level Jacksonville Center
05:15PM 31.7494 -81.9128 353° North 424 488 35,000  Level Jacksonville Center
05:16PM 31.8581 -81.9264 354° North 424 488 35,000  Level Jacksonville Center
05:17PM 31.9897 -81.9447 353° North 424 488 35,000  Level Jacksonville Center
05:19PM 32.2783 -81.9803 354° North 439 505 35,000  Level Atlanta Center
05:20PM 32.3953 -81.9922 355° North 428 493 35,000  Level Atlanta Center
05:21PM 32.5147 -82.0092 353° North 428 493 35,000  Level Atlanta Center
05:22PM 32.6256 -82.0239 354° North 434 499 35,000  Level Atlanta Center
05:23PM 32.7425 -82.0361 355° North 429 494 35,000  Level Atlanta Center
05:24PM 32.8619 -82.0531 353° North 429 494 35,000  Level Atlanta Center
05:25PM 32.9831 -82.0653 355° North 429 494 35,000  Level Atlanta Center
05:26PM 33.1000 -82.0575 North 423 487 35,000  Level Atlanta Center
05:27PM 33.2208 -82.0497 North 423 487 35,000  Level Atlanta Center
05:28PM 33.3397 -82.0422 North 423 487 35,000  Level Atlanta Center
05:29PM 33.4586 -82.0319 North 423 487 35,000  Level Atlanta Center
05:30PM 33.5772 -82.0242 North 423 487 35,000  Level Atlanta Center
05:31PM 33.6983 -82.0164 North 423 487 35,000  Level Atlanta Center
05:32PM 33.8297 -82.0083 North 423 487 35,000  Level Atlanta Center
05:33PM 33.9483 -82.0003 North 423 487 35,000  Level Atlanta Center
05:34PM 34.0672 -81.9925 North 423 487 35,000  Level Atlanta Center
05:35PM 34.1861 -81.9847 North 423 487 35,000  Level Atlanta Center
05:36PM 34.3092 -81.9792 North 423 487 35,000  Level Atlanta Center
05:37PM 34.4258 -81.9686 North 423 487 35,000  Level Atlanta Center
05:38PM 34.5469 -81.9633 North 423 487 35,000  Level Atlanta Center
05:39PM 34.6636 -81.9528 North 423 487 35,000  Level Atlanta Center
05:40PM 34.7822 -81.9447 North 423 487 35,000  Level Atlanta Center
05:41PM 34.9033 -81.9392 North 418 481 35,000  Level Atlanta Center
05:42PM 35.0075 -81.9314 North 418 481 35,000  Level Atlanta Center
05:43PM 35.1283 -81.9258 North 418 481 35,000  Level Atlanta Center
05:44PM 35.2431 -81.9231 North 418 481 35,000  Level Atlanta Center
05:45PM 35.3639 -81.9172 North 418 481 35,000  Level Atlanta Center
05:46PM 35.4850 -81.9117 North 418 481 35,000  Level Atlanta Center
05:47PM 35.6142 -81.9058 North 418 481 35,000  Level Atlanta Center
05:48PM 35.7331 -81.9000 North 423 487 35,000  Level Atlanta Center
05:49PM 35.8539 -81.8942 North 423 487 35,000  Level Atlanta Center
05:50PM 35.9728 -81.8861 North 423 487 35,000  Level Atlanta Center
05:51PM 36.0936 -81.8828 North 423 487 35,000  Level Atlanta Center
05:52PM 36.2103 -81.8772 North 423 487 35,000  Level Atlanta Center
05:53PM 36.3289 -81.8689 North 423 487 35,000  Level Atlanta Center
05:54PM 36.4497 -81.8631 North 423 487 35,000  Level Atlanta Center
05:56PM 36.7022 -81.8497 North 432 497 35,000  Level Indianapolis Center
05:57PM 36.8214 -81.8431 North 432 497 35,000  Level Indianapolis Center
05:58PM 36.9419 -81.8378 North 432 497 35,000  Level Indianapolis Center
05:59PM 37.0617 -81.8325 North 432 497 35,000 -300 Level Indianapolis Center
06:00PM 37.2022 -81.8261 North 432 497 34,400 -540 Descending Indianapolis Center
06:01PM 37.3236 -81.8275 359° North 433 498 34,000 -240 Descending Indianapolis Center
06:02PM 37.4261 -81.8919 333° Northwest 415 478 34,000 -360 Level Indianapolis Center
06:03PM 37.5242 -81.9581 332° Northwest 403 464 33,300 -840 Descending Indianapolis Center
06:04PM 37.6253 -82.0272 332° Northwest 407 468 32,400 -1,020 Descending Indianapolis Center
06:05PM 37.7475 -82.1117 331° Northwest 423 487 31,300 -1,020 Descending Indianapolis Center
06:07PM 37.8528 -82.1839 332° Northwest 426 490 30,400 -1,020 Descending Indianapolis Center
06:08PM 37.9561 -82.2564 331° Northwest 426 490 29,200 -1,200 Descending Indianapolis Center
06:09PM 38.0583 -82.3275 331° Northwest 425 489 28,000 -600 Descending Indianapolis Center
06:10PM 38.1481 -82.3894 332° Northwest 401 461 28,000 -480 Level Indianapolis Center
06:11PM 38.2358 -82.4519 331° Northwest 373 429 27,100 -1,020 Descending Indianapolis Center
06:12PM 38.3392 -82.5239 331° Northwest 356 410 25,900 -1,080 Descending Indianapolis Center
06:13PM 38.4219 -82.5811 332° Northwest 345 397 24,900 -960 Descending Indianapolis Center
06:14PM 38.5047 -82.6400 331° Northwest 343 395 24,000 -480 Descending Indianapolis Center
06:15PM 38.5878 -82.7006 330° Northwest 343 395 24,000 -480 Level Indianapolis Center
06:16PM 38.6694 -82.7561 332° Northwest 337 388 23,100 -1,320 Descending Indianapolis Center
06:17PM 38.7506 -82.8147 331° Northwest 336 387 21,300 -1,860 Descending Indianapolis Center
06:18PM 38.8308 -82.8714 331° Northwest 334 384 19,300 -1,860 Descending Indianapolis Center
06:19PM 38.9072 -82.9281 330° Northwest 323 372 17,500 -1,800 Descending Indianapolis Center
06:20PM 38.9953 -82.9908 331° Northwest 306 352 15,700 -1,500 Descending Indianapolis Center
06:21PM 39.0683 -83.0428 331° Northwest 305 351 14,500 -1,200 Descending Indianapolis Center
06:22PM 39.1506 -83.0692 346° North 322 371 13,300 -1,200 Descending Indianapolis Center
06:23PM 39.2383 -83.0519 North 320 368 12,100 -1,140 Descending Indianapolis Center
06:24PM 39.3303 -83.0361 North 322 371 11,100 -540 Descending Indianapolis Center
06:25PM 39.4128 -83.0150 11° North 320 368 11,000 -60 Descending Indianapolis Center
06:26PM 39.5042 -82.9989 North 299 344 11,000  Level Indianapolis Center
06:27PM 39.5861 -82.9769 12° North 297 342 11,000 -720 Level Indianapolis Center
06:28PM 39.6628 -82.9431 19° North 293 337 9,600 -1,680 Descending Indianapolis Center
06:29PM 39.7397 -82.9089 19° North 294 338 7,700 -1,740 Descending Indianapolis Center
06:29PM 39.7453 -82.9050 28° Northeast 297 342 7,600 -1,800 Descending Indianapolis Center
06:30PM 39.8233 -82.8728 18° North 297 342 5,600 -1,800 Descending Indianapolis Center
06:31PM 39.8969 -82.8442 17° North 269 310 4,300 -1,260 Descending Indianapolis Center
06:31PM 39.8981 -82.8422 53° Northeast 289 333 4,300 -1,020 Level Indianapolis Center
06:32PM 39.9508 -82.8061 28° Northeast 197 227 3,300 -1,080 Descending Indianapolis Center
06:32PM 39.9600 -82.7975 36° Northeast 222 255 3,200 -1,020 Descending Indianapolis Center
06:33PM 39.9897 -82.7961 North 139 160 2,300 -1,080 Descending Indianapolis Center
06:33PM 39.9958 -82.8031 319° Northwest 177 204 2,100 -900 Descending Indianapolis Center
06:34PM 39.9997 -82.8467 277° West 139 160 1,400 -900 Descending Indianapolis Center
06:34PM 40.0008 -82.8567 278° West 159 183 1,200 -840 Descending Indianapolis Center
06:36PM 39.9833 -82.8833 14° North  Level FlightAware Approximate
06:43PM 39.9969 -82.8922 14° North  Level Estimated